Round Rock, Arizona
Current Conditions -  °F | °C
As of 3:53 PM on Saturday 25 Oct 2014 (Local Time) from KRQE Reporting Station
Clear Clear  
Wind Chill: 73°   Ceiling: Unl
Heat Index: 73°   Visibility: 10mi
Dew Point: 35°   Wind: 14mph
Humidity: 25%   Direction: 240°WSW
Pressure: 30.3"   Gusts: 21mph
Location:  36.51°N, 109.47°W
Report Text: KRQE 252153Z AUTO 24012G18KT 10SM CLR 23/02 A3030 RMK AO2 SLP184 T02280017 TSNO
Loading
Personal Weather Stations






























Interactive Weather Map
Tropical Storm Tracking
New forecast layout! Learn more

10-Day Weather Forecast

Advertisements
Track Severe Weather on mobile